Time;durP1;ratioP1;P1;durP2;ratioP2;P2;SDS_P1;SDS_P2;PMS_P1;PMS_P2;Temp;Humidity;BMP_temperature;BMP_pressure;BME280_temperature;BME280_humidity;BME280_pressure;Samples;Min_cycle;Max_cycle;Signal;HPM_P1;HPM_P2
2022/09/12 00:01:15;;;;;;;22.73;18.10;;;12.00;99.90;;;;;;6309134;22;20481;-67
2022/09/12 00:03:44;;;;;;;23.63;17.90;;;11.90;99.90;;;;;;6310624;22;20448;-67
2022/09/12 00:06:15;;;;;;;22.27;18.27;;;11.90;99.90;;;;;;6309391;22;20897;-67
2022/09/12 00:08:42;;;;;;;21.90;18.20;;;12.00;99.90;;;;;;6310061;22;20763;-67
2022/09/12 00:11:12;;;;;;;25.30;19.40;;;12.00;99.90;;;;;;6310472;22;20399;-67
2022/09/12 00:13:41;;;;;;;21.30;17.87;;;11.90;50.50;;;;;;6310280;22;20419;-68
2022/09/12 00:16:14;;;;;;;23.57;19.33;;;11.90;48.10;;;;;;6310064;22;20471;-67
2022/09/12 00:18:47;;;;;;;24.07;18.50;;;11.80;99.90;;;;;;6309869;22;20395;-68
2022/09/12 00:21:16;;;;;;;25.53;18.10;;;11.70;99.90;;;;;;6310418;22;20460;-67
2022/09/12 00:23:43;;;;;;;22.03;17.00;;;11.70;99.90;;;;;;6310073;22;20414;-67
2022/09/12 00:26:11;;;;;;;21.73;17.33;;;11.70;99.90;;;;;;6309535;22;20831;-67
2022/09/12 00:28:39;;;;;;;21.67;18.77;;;11.60;99.90;;;;;;6309201;22;20510;-67
2022/09/12 00:31:09;;;;;;;21.27;17.40;;;11.70;99.90;;;;;;6310134;22;20515;-67
2022/09/12 00:33:37;;;;;;;20.20;17.70;;;11.70;99.90;;;;;;6309978;22;20391;-67
2022/09/12 00:36:13;;;;;;;21.80;16.70;;;11.70;99.90;;;;;;6309233;22;20506;-68
2022/09/12 00:38:40;;;;;;;27.50;17.50;;;11.70;99.90;;;;;;6309017;22;20419;-67
2022/09/12 00:41:15;;;;;;;23.00;18.17;;;11.70;99.90;;;;;;6310009;22;20394;-68
2022/09/12 00:43:44;;;;;;;21.07;16.27;;;11.50;99.90;;;;;;6310443;22;20854;-67
2022/09/12 00:46:22;;;;;;;21.20;18.47;;;11.50;99.90;;;;;;6309847;22;20917;-68
2022/09/12 00:48:54;;;;;;;20.67;17.93;;;11.50;99.90;;;;;;6309851;22;20389;-67
2022/09/12 00:51:24;;;;;;;20.90;17.90;;;11.50;99.90;;;;;;6309861;22;20493;-67
2022/09/12 00:53:55;;;;;;;18.33;16.03;;;11.50;99.90;;;;;;6308036;22;20390;-67
2022/09/12 00:56:23;;;;;;;18.77;15.03;;;11.40;99.90;;;;;;6309694;22;20494;-67
2022/09/12 00:58:55;;;;;;;18.20;16.27;;;11.40;99.90;;;;;;6309835;22;20403;-67
2022/09/12 01:01:23;;;;;;;18.03;14.80;;;11.40;99.90;;;;;;6310200;22;20391;-67
2022/09/12 01:03:50;;;;;;;18.30;14.97;;;11.50;99.90;;;;;;6309047;22;20494;-67
2022/09/12 01:06:24;;;;;;;19.80;15.83;;;11.40;99.90;;;;;;6308884;22;20734;-67
2022/09/12 01:08:52;;;;;;;19.77;16.10;;;11.30;99.90;;;;;;6309306;22;20451;-66
2022/09/12 01:11:21;;;;;;;18.00;15.67;;;11.20;99.90;;;;;;6310206;22;20891;-66
2022/09/12 01:13:50;;;;;;;19.00;16.47;;;11.30;99.90;;;;;;6309581;22;20926;-68
2022/09/12 01:16:18;;;;;;;18.70;15.50;;;11.30;99.90;;;;;;6309534;22;20420;-68
2022/09/12 01:18:58;;;;;;;17.23;14.50;;;11.20;99.90;;;;;;6308320;22;20424;-68
2022/09/12 01:21:37;;;;;;;19.80;15.30;;;11.20;99.90;;;;;;6309654;22;20466;-68
2022/09/12 01:24:49;;;;;;;20.10;15.20;;;11.20;99.90;;;;;;6309366;22;20463;-67
2022/09/12 01:27:44;;;;;;;19.13;15.20;;;11.20;99.90;;;;;;6309501;22;20458;-67
2022/09/12 01:30:41;;;;;;;18.80;16.13;;;11.30;99.90;;;;;;6308635;22;20424;-67
2022/09/12 01:33:55;;;;;;;18.83;14.50;;;11.30;99.90;;;;;;6304987;22;20450;-66
2022/09/12 01:36:37;;;;;;;17.57;15.33;;;11.20;99.90;;;;;;6308703;22;20509;-66
2022/09/12 01:39:06;;;;;;;19.00;14.10;;;11.10;99.90;;;;;;6309377;22;20395;-66
2022/09/12 01:45:07;;;;;;;18.10;15.70;;;11.00;99.90;;;;;;6309150;22;20342;-66
2022/09/12 01:47:40;;;;;;;16.00;14.40;;;11.00;99.90;;;;;;6309103;22;20422;-66
2022/09/12 01:50:14;;;;;;;15.03;13.17;;;11.00;99.90;;;;;;6309329;22;20502;-66
2022/09/12 01:52:48;;;;;;;16.20;13.73;;;11.00;99.90;;;;;;6309504;22;20420;-66
2022/09/12 01:55:21;;;;;;;17.27;14.63;;;11.00;99.90;;;;;;6310009;22;20399;-66
2022/09/12 01:57:54;;;;;;;17.53;13.67;;;11.00;99.90;;;;;;6309451;22;20542;-66
2022/09/12 02:00:21;;;;;;;15.50;13.90;;;11.00;99.90;;;;;;6309383;22;20398;-66
2022/09/12 02:02:54;;;;;;;16.60;13.27;;;11.00;99.90;;;;;;6309001;22;20451;-66
2022/09/12 02:05:29;;;;;;;15.80;13.80;;;11.00;99.90;;;;;;6309594;22;20867;-66
2022/09/12 02:08:01;;;;;;;16.70;14.47;;;10.90;99.90;;;;;;6308206;22;20510;-66
2022/09/12 02:10:32;;;;;;;15.43;12.83;;;10.80;99.90;;;;;;6309424;22;20424;-66
2022/09/12 02:13:05;;;;;;;16.30;13.17;;;10.80;99.90;;;;;;6309711;22;20412;-66
2022/09/12 02:15:38;;;;;;;14.30;12.80;;;10.80;99.90;;;;;;6309463;22;20482;-66
2022/09/12 02:18:06;;;;;;;14.27;12.40;;;10.80;99.90;;;;;;6310772;22;20422;-66
2022/09/12 02:20:39;;;;;;;14.53;12.80;;;10.80;99.90;;;;;;6310648;22;20489;-66
2022/09/12 02:23:11;;;;;;;15.37;12.77;;;10.70;99.90;;;;;;6311287;22;20502;-66
2022/09/12 02:25:41;;;;;;;15.47;12.70;;;10.80;99.90;;;;;;6311542;22;20514;-66
2022/09/12 02:28:16;;;;;;;14.10;11.67;;;10.80;99.90;;;;;;6310179;22;20441;-66
2022/09/12 02:30:55;;;;;;;17.47;13.33;;;10.70;99.90;;;;;;6311026;22;20833;-66
2022/09/12 02:33:27;;;;;;;15.27;12.93;;;10.70;99.90;;;;;;6311216;22;20473;-66
2022/09/12 02:36:03;;;;;;;14.20;12.70;;;10.70;99.90;;;;;;6310668;22;20505;-66
2022/09/12 02:38:37;;;;;;;15.63;13.57;;;10.70;99.90;;;;;;6310866;22;20528;-66
2022/09/12 02:41:05;;;;;;;15.60;13.27;;;10.80;99.90;;;;;;6311078;22;20444;-66
2022/09/12 02:43:32;;;;;;;14.00;12.50;;;10.70;99.90;;;;;;6311193;22;20521;-66
2022/09/12 02:46:02;;;;;;;14.70;12.30;;;10.70;99.90;;;;;;6310346;22;20422;-67
2022/09/12 02:48:34;;;;;;;13.27;11.90;;;10.70;99.90;;;;;;6311147;22;20426;-67
2022/09/12 02:51:03;;;;;;;12.43;11.13;;;10.60;99.90;;;;;;6309407;22;20416;-67
2022/09/12 02:53:32;;;;;;;13.40;12.00;;;10.70;99.90;;;;;;6311105;22;20424;-67
2022/09/12 02:56:02;;;;;;;12.50;11.20;;;10.60;99.90;;;;;;6310813;22;20450;-67
2022/09/12 02:58:32;;;;;;;11.87;10.67;;;10.60;99.90;;;;;;6310801;22;20523;-67
2022/09/12 03:01:08;;;;;;;14.13;11.90;;;10.60;99.90;;;;;;6310748;22;20497;-67
2022/09/12 03:04:19;;;;;;;13.13;11.43;;;10.50;99.90;;;;;;6310922;22;20511;-67
2022/09/12 03:06:58;;;;;;;14.37;11.13;;;10.50;99.90;;;;;;6310875;22;20513;-67
2022/09/12 03:09:36;;;;;;;14.77;11.50;;;10.40;99.90;;;;;;6310768;22;20482;-66
2022/09/12 03:12:14;;;;;;;13.63;12.13;;;10.50;99.90;;;;;;6310187;22;20482;-68
2022/09/12 03:15:00;;;;;;;14.03;11.77;;;10.40;99.90;;;;;;6310656;22;20489;-68
2022/09/12 03:17:38;;;;;;;17.23;12.33;;;10.40;99.90;;;;;;6310753;22;20417;-67
2022/09/12 03:20:11;;;;;;;17.30;12.93;;;10.40;99.90;;;;;;6310458;22;20460;-67
2022/09/12 03:22:51;;;;;;;14.63;10.70;;;10.40;99.90;;;;;;6310154;22;20782;-68
2022/09/12 03:25:26;;;;;;;12.23;11.00;;;10.40;99.90;;;;;;6310817;22;20419;-67
2022/09/12 03:27:58;;;;;;;13.07;11.73;;;10.40;99.90;;;;;;6309854;22;20422;-67
2022/09/12 03:30:26;;;;;;;12.13;10.83;;;10.40;99.90;;;;;;6310667;22;20728;-69
2022/09/12 03:32:57;;;;;;;11.20;10.00;;;10.40;99.90;;;;;;6309891;22;20522;-69
2022/09/12 03:35:25;;;;;;;11.60;10.20;;;10.40;99.90;;;;;;6310385;22;20853;-68
2022/09/12 03:37:56;;;;;;;16.80;11.17;;;10.30;99.90;;;;;;6310511;22;20428;-68
2022/09/12 03:40:23;;;;;;;11.67;10.40;;;10.30;99.90;;;;;;6310219;22;20391;-69
2022/09/12 03:42:52;;;;;;;12.00;10.80;;;10.30;99.90;;;;;;6310338;22;20402;-68
2022/09/12 03:45:20;;;;;;;12.87;11.37;;;10.20;99.90;;;;;;6310422;22;20435;-68
2022/09/12 03:47:50;;;;;;;17.57;10.30;;;10.20;99.90;;;;;;6310346;22;20422;-68
2022/09/12 03:50:24;;;;;;;11.93;10.73;;;10.20;99.90;;;;;;6308824;22;20522;-68
2022/09/12 03:52:53;;;;;;;14.03;11.70;;;10.20;99.90;;;;;;6310080;22;20920;-69
2022/09/12 03:55:20;;;;;;;12.77;11.47;;;10.20;99.90;;;;;;6310025;22;20469;-69
2022/09/12 03:57:47;;;;;;;11.73;10.60;;;10.20;99.90;;;;;;6310363;22;20475;-68
2022/09/12 04:00:15;;;;;;;11.23;10.07;;;10.20;99.90;;;;;;6310075;22;20908;-68
2022/09/12 04:02:42;;;;;;;12.73;10.40;;;10.20;99.90;;;;;;6309584;22;20390;-68
2022/09/12 04:05:11;;;;;;;12.83;10.77;;;10.20;99.90;;;;;;6310315;22;20426;-68
2022/09/12 04:07:38;;;;;;;11.90;10.70;;;10.20;99.90;;;;;;6309883;22;20458;-68
2022/09/12 04:10:08;;;;;;;12.43;11.13;;;10.20;99.90;;;;;;6309439;22;20503;-68
2022/09/12 04:12:38;;;;;;;18.50;10.33;;;10.10;99.90;;;;;;6309836;22;20515;-68
2022/09/12 04:15:08;;;;;;;11.77;9.90;;;10.10;99.90;;;;;;6309646;22;20420;-68
2022/09/12 04:17:35;;;;;;;12.00;10.70;;;10.10;99.90;;;;;;6310487;22;20418;-68
2022/09/12 04:20:06;;;;;;;12.90;11.03;;;10.00;99.90;;;;;;6309567;22;20420;-68
2022/09/12 04:22:34;;;;;;;11.70;10.50;;;10.00;99.90;;;;;;6310347;22;20424;-68
2022/09/12 04:25:02;;;;;;;15.30;11.23;;;10.00;99.90;;;;;;6309826;22;20420;-68
2022/09/12 04:27:32;;;;;;;12.90;10.93;;;10.00;99.90;;;;;;6309459;22;20426;-68
2022/09/12 04:30:01;;;;;;;12.80;11.23;;;10.10;99.90;;;;;;6309628;22;20398;-70
2022/09/12 04:32:30;;;;;;;13.83;10.90;;;10.10;99.90;;;;;;6310143;22;20701;-70
2022/09/12 04:34:58;;;;;;;12.40;11.10;;;10.00;99.90;;;;;;6310131;22;20402;-70
2022/09/12 04:37:25;;;;;;;15.50;11.90;;;10.10;99.90;;;;;;6309256;22;20523;-70
2022/09/12 04:39:56;;;;;;;12.03;10.50;;;10.10;99.90;;;;;;6309124;22;20493;-71
2022/09/12 04:42:23;;;;;;;15.47;13.80;;;10.00;99.90;;;;;;6308503;22;20394;-70
2022/09/12 04:44:52;;;;;;;16.20;13.33;;;10.00;99.90;;;;;;6309327;22;20394;-70
2022/09/12 04:47:19;;;;;;;16.97;12.50;;;10.10;99.90;;;;;;6309338;22;20840;-69
2022/09/12 04:49:49;;;;;;;15.53;13.57;;;10.10;99.90;;;;;;6309874;22;20442;-69
2022/09/12 04:52:17;;;;;;;13.60;11.40;;;10.00;99.90;;;;;;6308872;22;20706;-68
2022/09/12 04:54:44;;;;;;;16.13;13.20;;;10.00;99.90;;;;;;6309546;22;20399;-68
2022/09/12 04:57:14;;;;;;;16.40;13.10;;;10.00;99.90;;;;;;6309674;22;20519;-68
2022/09/12 04:59:43;;;;;;;16.43;13.00;;;10.00;99.90;;;;;;6309883;22;20820;-69
2022/09/12 05:02:12;;;;;;;13.93;12.43;;;10.10;99.90;;;;;;6309643;22;20394;-68
2022/09/12 05:04:39;;;;;;;14.30;11.77;;;10.10;99.90;;;;;;6310116;22;20466;-68
2022/09/12 05:07:07;;;;;;;15.37;12.70;;;10.10;99.90;;;;;;6309335;22;20889;-67
2022/09/12 05:09:34;;;;;;;15.13;12.07;;;10.10;99.90;;;;;;6309964;22;20456;-67
2022/09/12 05:12:01;;;;;;;14.40;11.90;;;10.20;99.90;;;;;;6308991;22;20470;-67
2022/09/12 05:14:29;;;;;;;16.47;13.90;;;10.10;99.90;;;;;;6309047;22;20390;-67
2022/09/12 05:16:59;;;;;;;15.43;12.30;;;10.20;99.90;;;;;;6309326;22;20394;-67
2022/09/12 05:19:28;;;;;;;17.60;13.40;;;10.20;99.90;;;;;;6308763;22;20426;-66
2022/09/12 05:21:56;;;;;;;14.67;13.07;;;10.30;99.90;;;;;;6308571;22;20391;-66
2022/09/12 05:24:26;;;;;;;16.83;12.10;;;10.30;99.90;;;;;;6308623;22;20493;-66
2022/09/12 05:26:56;;;;;;;16.40;14.40;;;10.40;99.90;;;;;;6309671;22;20477;-66
2022/09/12 05:29:24;;;;;;;13.93;12.10;;;10.50;99.90;;;;;;6309186;22;20425;-66
2022/09/12 05:31:52;;;;;;;16.53;13.13;;;10.50;99.90;;;;;;6309215;22;20427;-66
2022/09/12 05:34:19;;;;;;;18.40;12.17;;;10.70;99.90;;;;;;6309203;22;20421;-66
2022/09/12 05:36:49;;;;;;;15.97;12.93;;;10.70;99.90;;;;;;6308682;22;20930;-66
2022/09/12 05:39:17;;;;;;;13.83;12.43;;;10.90;99.90;;;;;;6308141;22;20434;-67
2022/09/12 05:41:44;;;;;;;14.83;12.13;;;10.90;99.90;;;;;;6306481;22;20420;-66
2022/09/12 05:44:13;;;;;;;14.07;12.57;;;11.10;99.90;;;;;;6305269;22;20912;-66
2022/09/12 05:46:43;;;;;;;16.60;12.20;;;11.10;99.90;;;;;;6304620;22;20706;-66
2022/09/12 05:49:13;;;;;;;13.90;12.10;;;11.20;99.90;;;;;;6305931;22;20511;-66
2022/09/12 05:51:43;;;;;;;14.03;11.80;;;11.30;99.90;;;;;;6308508;22;20387;-66
2022/09/12 05:54:17;;;;;;;15.57;12.80;;;11.50;99.90;;;;;;6310867;22;20437;-66
2022/09/12 05:56:45;;;;;;;13.73;11.53;;;11.60;99.90;;;;;;6309609;22;20427;-66
2022/09/12 05:59:14;;;;;;;16.17;12.60;;;11.80;99.90;;;;;;6308955;22;20497;-66
2022/09/12 06:01:42;;;;;;;15.83;11.57;;;12.00;99.90;;;;;;6308157;22;20387;-66
2022/09/12 06:04:09;;;;;;;13.70;11.80;;;12.20;99.90;;;;;;6307972;22;20391;-66
2022/09/12 06:06:38;;;;;;;15.23;11.80;;;12.30;99.90;;;;;;6308006;22;20441;-66
2022/09/12 06:09:06;;;;;;;14.70;11.50;;;12.30;99.90;;;;;;6309925;22;21090;-66
2022/09/12 06:11:39;;;;;;;13.30;11.63;;;12.50;99.90;;;;;;6310895;22;20903;-66
2022/09/12 06:14:08;;;;;;;11.90;10.60;;;12.70;99.90;;;;;;6309861;22;20459;-66
2022/09/12 06:16:36;;;;;;;16.10;14.00;;;13.00;99.90;;;;;;6309466;22;20426;-67
2022/09/12 06:19:06;;;;;;;14.67;11.70;;;13.20;99.90;;;;;;6309400;22;20424;-67
2022/09/12 06:21:34;;;;;;;17.10;11.97;;;13.50;99.90;;;;;;6309480;22;20403;-67
2022/09/12 06:24:02;;;;;;;14.93;10.13;;;13.80;99.90;;;;;;6309615;22;20397;-67
2022/09/12 06:26:34;;;;;;;16.87;12.67;;;14.00;99.90;;;;;;6310023;22;20467;-67
2022/09/12 06:29:06;;;;;;;16.17;11.77;;;14.20;99.90;;;;;;6311113;22;20538;-66
2022/09/12 06:31:36;;;;;;;14.30;11.87;;;14.40;99.90;;;;;;6310082;22;20874;-66
2022/09/12 06:34:05;;;;;;;14.07;12.67;;;14.40;99.90;;;;;;6308997;22;20489;-67
2022/09/12 06:36:35;;;;;;;13.30;11.70;;;14.80;99.90;;;;;;6308494;22;20473;-67
2022/09/12 06:39:04;;;;;;;12.53;10.20;;;15.20;99.90;;;;;;6309222;22;20416;-67
2022/09/12 06:41:32;;;;;;;12.50;11.00;;;15.40;99.90;;;;;;6309298;22;20416;-64
2022/09/12 06:44:02;;;;;;;14.17;9.57;;;15.60;99.90;;;;;;6309263;22;20416;-65
2022/09/12 06:46:29;;;;;;;13.03;11.30;;;15.90;99.90;;;;;;6308353;22;20530;-65
2022/09/12 06:48:58;;;;;;;13.40;10.60;;;16.20;99.90;;;;;;6309312;22;20429;-65
2022/09/12 06:51:29;;;;;;;13.13;11.83;;;16.60;99.90;;;;;;6310277;22;20726;-65
2022/09/12 06:53:58;;;;;;;11.43;10.20;;;16.70;1.00;;;;;;6310388;22;20434;-65
2022/09/12 06:56:31;;;;;;;10.93;9.83;;;16.60;99.90;;;;;;6310485;22;20416;-65
2022/09/12 06:58:59;;;;;;;10.53;9.50;;;16.50;1.00;;;;;;6309250;22;20394;-65
2022/09/12 07:01:29;;;;;;;12.30;9.87;;;16.50;99.90;;;;;;6308752;22;20459;-65
2022/09/12 07:03:58;;;;;;;12.00;9.87;;;16.80;1.00;;;;;;6307022;22;20420;-65
2022/09/12 07:06:30;;;;;;;10.70;9.70;;;17.00;1.00;;;;;;6307260;22;20515;-66
2022/09/12 07:09:03;;;;;;;10.40;9.30;;;17.30;1.00;;;;;;6308097;22;20451;-65
2022/09/12 07:11:33;;;;;;;11.70;9.37;;;17.40;99.90;;;;;;6307545;22;20417;-66
2022/09/12 07:14:02;;;;;;;11.20;9.17;;;17.50;39.60;;;;;;6308600;22;20501;-67
2022/09/12 07:16:31;;;;;;;10.43;9.47;;;17.60;1.00;;;;;;6309200;22;20960;-67
2022/09/12 07:19:00;;;;;;;11.80;9.47;;;17.70;26.90;;;;;;6309731;22;20726;-68
2022/09/12 07:21:28;;;;;;;10.50;9.50;;;17.90;97.90;;;;;;6309915;22;20511;-67
2022/09/12 07:23:56;;;;;;;11.83;10.63;;;18.10;43.70;;;;;;6309946;22;20845;-68
2022/09/12 07:26:25;;;;;;;13.20;11.97;;;18.00;1.00;;;;;;6310283;22;20749;-68
2022/09/12 07:28:54;;;;;;;13.47;10.50;;;17.90;1.00;;;;;;6310325;22;20530;-67
2022/09/12 07:31:23;;;;;;;11.80;10.70;;;18.00;1.00;;;;;;6310934;22;20424;-67
2022/09/12 07:33:52;;;;;;;11.30;10.10;;;18.00;1.00;;;;;;6310083;22;20453;-67
2022/09/12 07:36:21;;;;;;;11.60;10.40;;;18.00;1.00;;;;;;6309993;22;20546;-67
2022/09/12 07:38:48;;;;;;;11.20;10.00;;;18.10;1.00;;;;;;6309856;22;20391;-67
2022/09/12 07:41:19;;;;;;;11.80;9.83;;;18.10;1.00;;;;;;6310784;22;20485;-67
2022/09/12 07:43:51;;;;;;;11.50;10.10;;;18.10;1.00;;;;;;6309607;22;20457;-66
2022/09/12 07:46:26;;;;;;;11.07;9.97;;;18.10;1.00;;;;;;6310610;22;20490;-67
2022/09/12 07:48:57;;;;;;;13.27;10.60;;;18.10;1.00;;;;;;6309465;22;20447;-66
2022/09/12 07:51:26;;;;;;;11.83;10.63;;;18.30;1.00;;;;;;6309245;22;20420;-66
2022/09/12 07:53:55;;;;;;;12.53;9.83;;;18.30;1.00;;;;;;6309516;22;20543;-66
2022/09/12 07:56:23;;;;;;;13.77;10.57;;;18.30;1.00;;;;;;6309930;22;20445;-66
2022/09/12 07:58:50;;;;;;;11.27;10.07;;;18.30;1.00;;;;;;6309613;22;20519;-66
2022/09/12 08:01:19;;;;;;;11.77;10.57;;;18.40;1.00;;;;;;6310660;22;20515;-66
2022/09/12 08:03:48;;;;;;;12.70;11.23;;;18.40;1.00;;;;;;6309979;22;20387;-66
2022/09/12 08:06:20;;;;;;;10.77;9.73;;;18.40;1.00;;;;;;6309667;22;20427;-66
2022/09/12 08:08:48;;;;;;;10.50;9.50;;;18.40;1.00;;;;;;6309965;22;20447;-66
2022/09/12 08:11:17;;;;;;;12.33;10.80;;;18.50;1.00;;;;;;6310488;22;20408;-66
2022/09/12 08:13:46;;;;;;;11.33;10.23;;;18.50;1.00;;;;;;6310230;22;20497;-66
2022/09/12 08:16:15;;;;;;;12.73;10.63;;;18.50;1.00;;;;;;6310349;22;20452;-65
2022/09/12 08:18:42;;;;;;;11.63;10.20;;;18.60;1.00;;;;;;6309730;22;20394;-65
2022/09/12 08:21:17;;;;;;;12.87;10.67;;;18.70;1.00;;;;;;6308685;22;20858;-65
2022/09/12 08:23:46;;;;;;;12.23;10.93;;;18.80;1.00;;;;;;6310076;22;20847;-65
2022/09/12 08:26:13;;;;;;;10.23;9.23;;;19.00;1.00;;;;;;6308708;22;20542;-65
2022/09/12 08:28:44;;;;;;;11.80;10.53;;;19.10;1.00;;;;;;6308421;22;20444;-64
2022/09/12 08:31:13;;;;;;;12.40;10.27;;;19.30;1.00;;;;;;6307357;22;20395;-65
2022/09/12 08:33:40;;;;;;;10.53;9.10;;;19.40;1.00;;;;;;6309779;22;20518;-64
2022/09/12 08:36:10;;;;;;;12.00;10.80;;;19.50;1.00;;;;;;6309327;22;20961;-64
2022/09/12 08:38:38;;;;;;;11.10;9.23;;;19.70;1.00;;;;;;6308946;22;20713;-64
2022/09/12 08:41:14;;;;;;;11.67;10.47;;;19.90;1.00;;;;;;6310263;22;20785;-64
2022/09/12 08:44:04;;;;;;;10.33;9.33;;;20.20;1.00;;;;;;6310328;22;20416;-64
2022/09/12 08:46:37;;;;;;;10.53;9.53;;;20.50;1.00;;;;;;6309937;22;20915;-64
2022/09/12 08:49:08;;;;;;;9.97;9.03;;;20.80;1.00;;;;;;6308816;22;20448;-64
2022/09/12 08:51:36;;;;;;;9.80;8.97;;;21.00;1.00;;;;;;6309638;22;20515;-64
2022/09/12 08:54:10;;;;;;;10.77;9.27;;;21.20;99.90;;;;;;6309149;22;20756;-64
2022/09/12 08:56:41;;;;;;;9.80;8.83;;;21.30;99.90;;;;;;6309075;22;20868;-64
2022/09/12 08:59:09;;;;;;;9.27;8.37;;;21.30;99.90;;;;;;6309656;22;20777;-65
2022/09/12 09:01:43;;;;;;;9.17;8.37;;;21.40;99.90;;;;;;6309403;22;20416;-64
2022/09/12 09:04:36;;;;;;;8.80;7.27;;;21.40;99.90;;;;;;6309621;22;20474;-64
2022/09/12 09:07:38;;;;;;;8.17;7.27;;;21.50;99.90;;;;;;6309102;22;20515;-65
2022/09/12 09:10:18;;;;;;;8.33;7.53;;;21.70;99.90;;;;;;6307616;22;20806;-64
2022/09/12 09:12:54;;;;;;;7.13;6.53;;;22.10;99.90;;;;;;6309976;22;20420;-65
2022/09/12 09:15:41;;;;;;;7.27;6.67;;;22.30;99.90;;;;;;6308655;22;20420;-65
2022/09/12 09:18:16;;;;;;;7.87;7.17;;;22.50;99.90;;;;;;6308342;22;20456;-65
2022/09/12 09:20:49;;;;;;;7.17;6.03;;;22.70;99.90;;;;;;6309329;22;20864;-65
2022/09/12 09:23:25;;;;;;;8.27;6.93;;;22.90;99.90;;;;;;6309111;22;20522;-65
2022/09/12 09:25:58;;;;;;;5.83;5.23;;;23.30;99.90;;;;;;6308865;22;20861;-65
2022/09/12 09:28:38;;;;;;;7.70;5.50;;;23.60;99.90;;;;;;6308577;22;20963;-64
2022/09/12 09:31:12;;;;;;;5.87;5.37;;;23.80;99.90;;;;;;6308648;22;20853;-65
2022/09/12 09:33:39;;;;;;;10.13;4.90;;;23.90;99.90;;;;;;6309178;22;20518;-66
2022/09/12 09:36:21;;;;;;;6.20;5.60;;;23.70;99.90;;;;;;6308832;22;20800;-64
2022/09/12 09:38:51;;;;;;;5.20;4.70;;;23.30;99.90;;;;;;6308919;22;20416;-65
2022/09/12 09:41:31;;;;;;;7.00;4.50;;;23.10;99.90;;;;;;6309045;22;20391;-64
2022/09/12 09:44:01;;;;;;;5.00;4.60;;;23.00;99.90;;;;;;6308920;22;20896;-65
2022/09/12 09:46:31;;;;;;;4.37;4.07;;;23.60;99.90;;;;;;6309239;22;20473;-65
2022/09/12 09:49:02;;;;;;;4.60;4.20;;;24.00;99.90;;;;;;6309326;22;20542;-65
2022/09/12 09:51:37;;;;;;;4.97;4.47;;;24.80;99.90;;;;;;6308781;22;20456;-65
2022/09/12 09:54:16;;;;;;;4.57;4.17;;;25.20;99.90;;;;;;6309612;22;20812;-64
2022/09/12 09:56:43;;;;;;;4.67;4.27;;;25.20;99.90;;;;;;6309739;22;20868;-65
2022/09/12 09:59:16;;;;;;;6.77;4.47;;;25.20;99.90;;;;;;6309448;22;20908;-64
2022/09/12 10:01:53;;;;;;;4.40;4.00;;;25.30;99.90;;;;;;6309438;22;20427;-64
2022/09/12 10:04:28;;;;;;;4.73;4.40;;;25.50;99.90;;;;;;6308983;22;20396;-65
2022/09/12 10:06:58;;;;;;;4.30;4.00;;;25.30;99.90;;;;;;6309012;22;20416;-65
2022/09/12 10:09:28;;;;;;;5.70;5.20;;;25.80;99.90;;;;;;6309714;22;20441;-64
2022/09/12 10:11:57;;;;;;;4.43;4.03;;;25.70;99.90;;;;;;6308329;22;20454;-64
2022/09/12 10:14:35;;;;;;;4.73;4.33;;;26.10;99.90;;;;;;6308645;22;20470;-65
2022/09/12 10:17:28;;;;;;;5.43;4.60;;;26.30;99.90;;;;;;6309644;22;20841;-65
2022/09/12 10:19:56;;;;;;;4.00;3.70;;;26.60;99.90;;;;;;6309736;22;20417;-65
2022/09/12 10:22:27;;;;;;;4.83;4.20;;;26.80;99.90;;;;;;6308541;22;20416;-65
2022/09/12 10:25:00;;;;;;;4.40;4.10;;;26.80;99.90;;;;;;6309190;22;20565;-65
2022/09/12 10:27:31;;;;;;;4.90;4.50;;;26.80;99.90;;;;;;6308213;22;20710;-64
2022/09/12 10:30:05;;;;;;;4.30;4.00;;;26.70;99.90;;;;;;6308484;22;20448;-64
2022/09/12 10:32:39;;;;;;;4.77;4.40;;;26.80;99.90;;;;;;6307423;22;20514;-65
2022/09/12 10:35:18;;;;;;;4.63;4.27;;;26.70;99.90;;;;;;6308007;22;20416;-63
2022/09/12 10:37:54;;;;;;;4.50;4.17;;;26.40;99.90;;;;;;6308728;22;20416;-65
2022/09/12 10:40:24;;;;;;;4.30;3.90;;;26.60;99.90;;;;;;6309945;22;20518;-65
2022/09/12 10:42:53;;;;;;;4.53;4.13;;;26.00;99.90;;;;;;6309261;22;20511;-64
2022/09/12 10:45:28;;;;;;;4.00;3.70;;;26.10;99.90;;;;;;6308265;22;20794;-65
2022/09/12 10:48:01;;;;;;;3.70;3.40;;;26.50;99.90;;;;;;6308638;22;20416;-64
2022/09/12 10:50:31;;;;;;;4.60;3.73;;;27.10;99.90;;;;;;6309680;22;20521;-65
2022/09/12 10:53:14;;;;;;;4.10;3.80;;;27.10;99.90;;;;;;6309523;22;20422;-64
2022/09/12 10:55:51;;;;;;;4.97;4.57;;;27.20;99.90;;;;;;6306408;22;20515;-64
2022/09/12 10:58:39;;;;;;;4.77;4.30;;;27.50;99.90;;;;;;6310160;22;20416;-65
2022/09/12 11:01:16;;;;;;;4.47;4.17;;;27.90;99.90;;;;;;6309872;22;20423;-65
2022/09/12 11:04:03;;;;;;;4.50;4.20;;;27.80;99.90;;;;;;6307665;22;20412;-65
2022/09/12 11:06:39;;;;;;;4.87;4.47;;;27.70;99.90;;;;;;6309058;22;20412;-64
2022/09/12 11:09:13;;;;;;;7.57;4.70;;;27.60;99.90;;;;;;6308951;22;20524;-64
2022/09/12 11:11:54;;;;;;;4.67;4.27;;;27.60;99.90;;;;;;6309367;22;20456;-64
2022/09/12 11:14:36;;;;;;;5.00;4.60;;;27.50;99.90;;;;;;6308883;22;20387;-64
2022/09/12 11:17:14;;;;;;;5.20;4.73;;;27.70;99.90;;;;;;6309423;22;20814;-64
2022/09/12 11:20:09;;;;;;;4.93;4.53;;;28.00;99.90;;;;;;6310886;22;20386;-64
2022/09/12 11:23:04;;;;;;;3.97;3.70;;;27.60;99.90;;;;;;6307515;22;20416;-64
2022/09/12 11:25:41;;;;;;;4.00;3.70;;;27.40;99.90;;;;;;6307158;22;20416;-64
2022/09/12 11:28:31;;;;;;;4.57;4.27;;;27.50;99.90;;;;;;6306385;22;20447;-63
2022/09/12 11:31:24;;;;;;;4.43;4.03;;;27.90;99.90;;;;;;6307785;22;20448;-64
2022/09/12 11:33:54;;;;;;;4.10;3.80;;;28.10;99.90;;;;;;6307878;22;20459;-64
2022/09/12 11:36:35;;;;;;;4.33;4.03;;;28.40;99.90;;;;;;6307910;22;20440;-63
2022/09/12 11:39:10;;;;;;;5.10;4.70;;;28.40;99.90;;;;;;6308761;22;20776;-64
2022/09/12 11:41:44;;;;;;;4.67;4.37;;;28.00;99.90;;;;;;6308052;22;20474;-63
2022/09/12 11:44:17;;;;;;;4.43;4.03;;;28.40;99.90;;;;;;6306054;22;20428;-64
2022/09/12 11:46:46;;;;;;;4.77;4.47;;;28.10;99.90;;;;;;6306392;22;20423;-64
2022/09/12 11:49:31;;;;;;;3.90;3.60;;;28.10;99.90;;;;;;6306607;22;20462;-63
2022/09/12 11:52:04;;;;;;;4.93;4.43;;;28.40;99.90;;;;;;6306104;22;20422;-64
2022/09/12 11:54:39;;;;;;;4.37;4.00;;;28.60;99.90;;;;;;6308043;22;20420;-64
2022/09/12 11:57:20;;;;;;;3.90;3.60;;;28.10;99.90;;;;;;6308054;22;20421;-63
2022/09/12 11:59:52;;;;;;;4.13;3.83;;;27.60;99.90;;;;;;6309649;22;20412;-63
2022/09/12 12:02:26;;;;;;;4.37;3.97;;;27.80;99.90;;;;;;6308170;22;20515;-64
2022/09/12 12:05:05;;;;;;;4.30;4.00;;;28.00;99.90;;;;;;6309008;22;20427;-64
2022/09/12 12:07:41;;;;;;;3.83;3.50;;;28.20;99.90;;;;;;6307584;22;20736;-64
2022/09/12 12:10:25;;;;;;;4.10;3.80;;;28.10;99.90;;;;;;6308693;22;20455;-64
2022/09/12 12:12:54;;;;;;;4.03;3.73;;;27.80;99.90;;;;;;6310160;22;20466;-64
2022/09/12 12:15:22;;;;;;;6.93;4.50;;;27.70;99.90;;;;;;6308986;22;20513;-63
2022/09/12 12:18:01;;;;;;;4.40;4.10;;;28.00;99.90;;;;;;6306862;22;20489;-63
2022/09/12 12:20:32;;;;;;;5.20;4.73;;;28.00;99.90;;;;;;6309817;22;20412;-63
2022/09/12 12:23:00;;;;;;;4.40;4.03;;;27.80;99.90;;;;;;6309146;22;20727;-64
2022/09/12 12:25:41;;;;;;;4.10;3.80;;;27.90;99.90;;;;;;6310309;22;20420;-64
2022/09/12 12:28:09;;;;;;;4.03;3.80;;;28.10;99.90;;;;;;6309529;22;20493;-64
2022/09/12 12:31:04;;;;;;;4.50;4.10;;;27.60;99.90;;;;;;6309925;22;21007;-63
2022/09/12 12:34:07;;;;;;;4.70;4.40;;;27.70;99.90;;;;;;6310393;22;20896;-63
2022/09/12 12:36:42;;;;;;;3.50;3.30;;;27.50;99.90;;;;;;6202013;22;20447;-62
2022/09/12 12:39:46;;;;;;;3.97;3.67;;;27.60;99.90;;;;;;6278383;22;20794;-64
2022/09/12 12:43:06;;;;;;;4.50;4.20;;;28.00;99.90;;;;;;6278959;22;20413;-62
2022/09/12 12:46:10;;;;;;;3.70;3.40;;;27.50;99.90;;;;;;6278372;22;20417;-63
2022/09/12 12:48:53;;;;;;;4.07;3.67;;;27.90;99.90;;;;;;6278233;22;20760;-63
2022/09/12 12:51:41;;;;;;;3.40;3.20;;;28.40;99.90;;;;;;6261332;22;20414;-63
2022/09/12 12:54:28;;;;;;;4.20;3.90;;;28.80;99.90;;;;;;6278455;22;20417;-63
2022/09/12 12:57:22;;;;;;;5.43;5.10;;;28.70;99.90;;;;;;6278924;22;20511;-63
2022/09/12 12:59:56;;;;;;;3.73;3.43;;;28.80;99.90;;;;;;6276957;22;20507;-63
2022/09/12 13:02:29;;;;;;;5.03;4.20;;;29.30;99.90;;;;;;6278725;22;20495;-63
2022/09/12 13:05:01;;;;;;;4.40;4.10;;;29.60;99.90;;;;;;6279140;22;20423;-63
2022/09/12 13:07:37;;;;;;;4.80;4.40;;;29.60;99.90;;;;;;6278656;22;20405;-63
2022/09/12 13:10:06;;;;;;;3.80;3.50;;;29.30;99.90;;;;;;6277447;22;20492;-63